CheckWX is a tool to help pilots better visualize weather data.  It is not intended as a substitute for an official pre-flight weather briefing.

14:44:22 UTC

KJST METAR
John Murtha Johnstown-Cambria Co Airport
Johnstown, Pennsylvania, USA
Current

40 mins ago

KJST 201404Z AUTO 24012G18KT 10SM BKN016 BKN023 19/15 A2991 RMK AO2 T01890150
Observed
May-20 @ 14:04 UTC
Wind
  • 240° at 12 KTS
  • Gusting to 18 KTS
Visibility
10 SM
Flight Rules
MVFR
Cloud Levels
  • Broken at 1,600' AGL
  • Broken at 2,300' AGL
Temperature
19°C / 66°F
Dewpoint
15°C / 59°F
Humidity
78%
Altimeter
29.91" Hg
Pressure
1012.92 hPa
Previous

1 hour ago

KJST 201343Z AUTO 23013G20KT 10SM BKN014 BKN020 OVC028 18/16 A2991 RMK AO2 RAE12 P0000 T01830156
Observed
May-20 @ 13:43 UTC
Wind
  • 230° at 13 KTS
  • Gusting to 20 KTS
Visibility
10 SM
Flight Rules
MVFR
Cloud Levels
  • Broken at 1,400' AGL
  • Broken at 2,000' AGL
  • Overcast at 2,800' AGL
Temperature
18°C / 64°F
Dewpoint
16°C / 61°F
Humidity
88%
Altimeter
29.91" Hg
Pressure
1012.92 hPa
Current Rain
0.01"
Previous

2 hours ago

KJST 201254Z AUTO 25008KT 10SM -RA BKN015 OVC022 18/16 A2992 RMK AO2 RAB45 SLP118 P0000 T01780156
Observed
May-20 @ 12:54 UTC
Wind
  • 250° at 8 KTS
Visibility
10 SM
Flight Rules
MVFR
Conditions
Light Rain
Cloud Levels
  • Broken at 1,500' AGL
  • Overcast at 2,200' AGL
Temperature
18°C / 64°F
Dewpoint
16°C / 61°F
Humidity
88%
Altimeter
29.92" Hg
Pressure
1013.22 hPa
Current Rain
0.01"